createdAt,value
2023-02-02T00:03:51.148Z,2.40
2023-02-02T00:07:53.213Z,2.70
2023-02-02T00:11:55.617Z,2.40
2023-02-02T00:15:57.713Z,2.10
2023-02-02T00:19:59.633Z,1.80
2023-02-02T00:24:01.758Z,2.00
2023-02-02T00:28:03.864Z,2.20
2023-02-02T00:32:06.057Z,2.50
2023-02-02T00:36:08.287Z,2.00
2023-02-02T00:40:11.004Z,1.70
2023-02-02T00:44:31.904Z,2.10
2023-02-02T00:48:34.858Z,2.10
2023-02-02T00:52:36.787Z,2.40
2023-02-02T00:56:38.684Z,2.70
2023-02-02T01:00:40.638Z,2.90
2023-02-02T01:04:43.274Z,2.70
2023-02-02T01:08:45.339Z,2.70
2023-02-02T01:12:47.242Z,2.80
2023-02-02T01:16:49.177Z,2.90
2023-02-02T01:21:03.168Z,2.70
2023-02-02T01:25:05.736Z,2.60
2023-02-02T01:29:07.698Z,2.60
2023-02-02T01:33:09.667Z,2.60
2023-02-02T01:37:11.575Z,2.70
2023-02-02T01:41:24.595Z,2.90
2023-02-02T01:45:29.104Z,3.10
2023-02-02T01:49:31.081Z,3.20
2023-02-02T01:53:34.404Z,3.20
2023-02-02T01:57:44.150Z,3.40
2023-02-02T02:01:48.587Z,3.00
2023-02-02T02:05:56.423Z,3.20
2023-02-02T02:09:58.614Z,3.30
2023-02-02T02:14:23.665Z,3.10
2023-02-02T02:19:04.454Z,2.80
2023-02-02T02:23:59.951Z,2.80
2023-02-02T02:28:19.811Z,2.50
2023-02-02T02:32:22.029Z,2.80
2023-02-02T02:36:52.804Z,2.80
2023-02-02T02:40:57.878Z,2.70
2023-02-02T02:45:03.219Z,3.00
2023-02-02T02:49:09.669Z,2.80
2023-02-02T02:53:18.805Z,2.90
2023-02-02T02:57:30.098Z,2.10
2023-02-02T03:01:43.682Z,2.40
2023-02-02T03:06:10.884Z,2.40
2023-02-02T03:10:17.231Z,2.20
2023-02-02T03:14:19.101Z,2.20
2023-02-02T03:18:25.187Z,2.30
2023-02-02T03:22:26.971Z,2.60
2023-02-02T03:26:29.109Z,1.80
2023-02-02T03:30:31.247Z,2.20
2023-02-02T03:34:33.284Z,2.10
2023-02-02T03:38:35.199Z,1.50
2023-02-02T03:42:37.023Z,1.90
2023-02-02T03:46:38.835Z,2.10
2023-02-02T03:50:40.699Z,2.10
2023-02-02T03:54:42.517Z,1.90
2023-02-02T03:58:46.289Z,2.00
2023-02-02T04:02:48.105Z,1.80
2023-02-02T04:06:49.956Z,1.20
2023-02-02T04:10:51.832Z,1.10
2023-02-02T04:14:53.752Z,1.40
2023-02-02T04:18:55.489Z,1.20
2023-02-02T04:22:57.258Z,1.30
2023-02-02T04:26:59.060Z,1.30
2023-02-02T04:31:01.004Z,1.50
2023-02-02T04:35:02.857Z,1.70
2023-02-02T04:39:05.188Z,1.00
2023-02-02T04:43:07.162Z,1.10
2023-02-02T04:47:09.051Z,0.70
2023-02-02T04:51:15.811Z,1.00
2023-02-02T04:55:17.882Z,1.00
2023-02-02T04:59:19.810Z,1.10
2023-02-02T05:03:21.599Z,1.40
2023-02-02T05:07:23.346Z,1.50
2023-02-02T05:11:25.151Z,1.60
2023-02-02T05:15:27.194Z,1.20
2023-02-02T05:19:29.277Z,0.80
2023-02-02T05:23:31.737Z,0.90
2023-02-02T05:27:34.024Z,0.70
2023-02-02T05:31:35.875Z,0.40
2023-02-02T05:35:38.314Z,0.50
2023-02-02T05:39:40.227Z,0.20
2023-02-02T05:43:42.334Z,0.80
2023-02-02T05:47:44.333Z,0.70
2023-02-02T05:51:50.166Z,0.20
2023-02-02T05:55:52.054Z,0.20
2023-02-02T05:59:54.509Z,0.40
2023-02-02T06:03:56.453Z,0.10
2023-02-02T06:07:58.351Z,0.10
2023-02-02T06:12:00.240Z,1.00
2023-02-02T06:16:02.367Z,0.60
2023-02-02T06:20:04.918Z,0.00
2023-02-02T06:24:07.326Z,-0.10
2023-02-02T06:28:09.507Z,0.20
2023-02-02T06:32:11.538Z,0.00
2023-02-02T06:36:13.475Z,0.50
2023-02-02T06:40:15.431Z,0.70
2023-02-02T06:44:19.316Z,0.20
2023-02-02T06:48:21.294Z,0.30
2023-02-02T06:52:23.256Z,0.50
2023-02-02T06:56:26.215Z,0.30
2023-02-02T07:00:29.952Z,0.30
2023-02-02T07:04:31.953Z,0.50
2023-02-02T07:08:33.872Z,0.50
2023-02-02T07:12:35.783Z,0.30
2023-02-02T07:16:37.847Z,0.40
2023-02-02T07:20:39.869Z,0.50
2023-02-02T07:24:42.084Z,0.30
2023-02-02T07:28:44.836Z,-0.20
2023-02-02T07:32:50.532Z,-0.10
2023-02-02T07:36:52.521Z,-0.10
2023-02-02T07:40:54.431Z,0.30
2023-02-02T07:44:56.385Z,0.60
2023-02-02T07:49:00.426Z,0.40
2023-02-02T07:53:02.406Z,0.60
2023-02-02T07:57:04.364Z,0.70
2023-02-02T08:01:08.440Z,0.60
2023-02-02T08:05:10.423Z,0.80
2023-02-02T08:09:12.328Z,1.10
2023-02-02T08:13:14.323Z,1.00
2023-02-02T08:17:16.360Z,1.20
2023-02-02T08:21:19.227Z,1.80
2023-02-02T08:25:21.153Z,2.10
2023-02-02T08:29:23.064Z,1.50
2023-02-02T08:33:25.003Z,2.10
2023-02-02T08:37:27.378Z,1.90
2023-02-02T08:41:29.413Z,1.80
2023-02-02T08:46:01.275Z,1.70
2023-02-02T08:49:53.967Z,1.60
2023-02-02T08:53:55.885Z,1.20
2023-02-02T08:57:57.815Z,1.00
2023-02-02T09:02:00.445Z,1.10
2023-02-02T09:06:07.287Z,1.40
2023-02-02T09:10:09.930Z,1.60
2023-02-02T09:14:14.125Z,1.50
2023-02-02T09:18:16.006Z,2.20
2023-02-02T09:22:18.010Z,2.20
2023-02-02T09:26:27.280Z,1.90
2023-02-02T09:30:29.447Z,1.90
2023-02-02T09:34:31.572Z,1.50
2023-02-02T09:38:33.927Z,2.00
2023-02-02T09:42:44.547Z,2.00
2023-02-02T09:47:13.838Z,2.20
2023-02-02T09:51:22.906Z,1.80
2023-02-02T09:55:35.295Z,1.70
2023-02-02T09:59:41.590Z,1.50
2023-02-02T10:04:18.903Z,1.70
2023-02-02T10:08:34.992Z,1.40
2023-02-02T10:13:03.020Z,1.80
2023-02-02T10:17:29.625Z,1.40
2023-02-02T10:21:45.423Z,2.40
2023-02-02T10:26:11.583Z,2.40
2023-02-02T10:30:21.224Z,2.40
2023-02-02T10:34:32.750Z,3.20
2023-02-02T10:38:47.665Z,3.30
2023-02-02T10:43:32.571Z,3.00
2023-02-02T10:47:35.084Z,2.50
2023-02-02T10:51:37.999Z,2.70
2023-02-02T10:55:42.672Z,2.50
2023-02-02T11:00:06.810Z,2.90
2023-02-02T11:04:29.193Z,2.00
2023-02-02T11:08:38.692Z,1.90
2023-02-02T11:12:46.811Z,2.70
2023-02-02T11:17:01.769Z,2.30
2023-02-02T11:21:03.843Z,2.30
2023-02-02T11:25:21.992Z,2.30
2023-02-02T11:29:42.398Z,2.20
2023-02-02T11:33:45.670Z,2.30
2023-02-02T11:38:14.128Z,2.70
2023-02-02T11:42:22.676Z,2.50
2023-02-02T11:46:32.874Z,2.20
2023-02-02T11:50:35.704Z,2.50
2023-02-02T11:54:38.811Z,2.60
2023-02-02T11:58:45.198Z,2.30
2023-02-02T12:02:49.591Z,2.80
2023-02-02T12:06:51.475Z,3.30
2023-02-02T12:11:03.565Z,2.90
2023-02-02T12:15:20.097Z,2.60
2023-02-02T12:19:40.738Z,2.50
2023-02-02T12:23:54.929Z,2.40
2023-02-02T12:28:25.857Z,2.60
2023-02-02T12:32:58.306Z,2.10
2023-02-02T12:37:10.255Z,2.20
2023-02-02T12:41:37.652Z,2.30
2023-02-02T12:45:58.502Z,2.50
2023-02-02T12:50:23.646Z,2.20
2023-02-02T12:54:55.999Z,1.90
2023-02-02T12:58:58.819Z,2.40
2023-02-02T13:03:06.646Z,2.40
2023-02-02T13:07:26.338Z,2.50
2023-02-02T13:11:49.740Z,2.50
2023-02-02T13:16:00.231Z,2.90
2023-02-02T13:20:16.181Z,2.60
2023-02-02T13:24:26.559Z,2.40
2023-02-02T13:29:06.801Z,1.90
2023-02-02T13:33:48.416Z,2.80
2023-02-02T13:38:00.842Z,2.90
2023-02-02T13:42:04.826Z,3.00
2023-02-02T13:46:13.972Z,2.00
2023-02-02T13:50:20.472Z,2.00
2023-02-02T13:54:56.921Z,2.10
2023-02-02T13:59:08.631Z,2.20
2023-02-02T14:03:33.768Z,2.30
2023-02-02T14:07:45.258Z,2.40
2023-02-02T14:11:58.244Z,2.20
2023-02-02T14:16:05.498Z,2.70
2023-02-02T14:20:46.789Z,2.70
2023-02-02T14:24:53.962Z,2.50
2023-02-02T14:28:55.774Z,2.00
2023-02-02T14:33:22.558Z,2.10
2023-02-02T14:37:24.473Z,2.40
2023-02-02T14:42:33.145Z,2.60
2023-02-02T14:46:39.598Z,2.50
2023-02-02T14:50:43.694Z,3.30
2023-02-02T14:54:49.050Z,3.00
2023-02-02T14:59:00.295Z,2.50
2023-02-02T15:03:35.700Z,2.50
2023-02-02T15:07:51.332Z,2.90
2023-02-02T15:12:00.899Z,3.00
2023-02-02T15:16:15.753Z,3.10
2023-02-02T15:20:26.967Z,2.90
2023-02-02T15:24:30.681Z,2.80
2023-02-02T15:28:46.266Z,2.90
2023-02-02T15:32:48.977Z,3.00
2023-02-02T15:36:58.106Z,2.30
2023-02-02T15:41:19.675Z,2.20
2023-02-02T15:45:31.757Z,2.00
2023-02-02T15:49:36.279Z,2.20
2023-02-02T15:53:41.441Z,2.50
2023-02-02T15:57:45.518Z,2.80
2023-02-02T16:02:14.021Z,2.80
2023-02-02T16:06:18.477Z,2.40
2023-02-02T16:10:21.751Z,2.80
2023-02-02T16:14:23.811Z,3.20
2023-02-02T16:18:26.225Z,3.80
2023-02-02T16:22:30.627Z,3.80
2023-02-02T16:26:33.432Z,3.50
2023-02-02T16:30:38.549Z,3.30
2023-02-02T16:34:40.728Z,3.60
2023-02-02T16:38:42.829Z,3.60
2023-02-02T16:42:44.736Z,3.30
2023-02-02T16:46:49.812Z,3.10
2023-02-02T16:51:15.943Z,3.00
2023-02-02T16:55:19.626Z,2.90
2023-02-02T16:59:36.785Z,3.20
2023-02-02T17:03:42.358Z,3.00
2023-02-02T17:07:54.765Z,3.70
2023-02-02T17:12:03.538Z,3.70
2023-02-02T17:16:06.319Z,3.70
2023-02-02T17:20:09.432Z,3.20
2023-02-02T17:24:12.167Z,2.90
2023-02-02T17:28:18.597Z,2.80
2023-02-02T17:32:20.589Z,2.40
2023-02-02T17:36:22.571Z,2.90
2023-02-02T17:40:24.720Z,3.00
2023-02-02T17:44:27.371Z,2.80
2023-02-02T17:48:29.260Z,2.30
2023-02-02T17:52:31.141Z,2.20
2023-02-02T17:56:32.978Z,2.50
2023-02-02T18:00:35.450Z,2.70
2023-02-02T18:04:37.320Z,2.70
2023-02-02T18:08:39.340Z,2.70
2023-02-02T18:12:42.088Z,2.20
2023-02-02T18:16:44.008Z,2.70
2023-02-02T18:20:48.728Z,2.80
2023-02-02T18:24:50.884Z,2.20
2023-02-02T18:28:53.404Z,2.40
2023-02-02T18:32:55.357Z,2.50
2023-02-02T18:36:57.453Z,2.70
2023-02-02T18:40:59.384Z,2.60
2023-02-02T18:45:01.881Z,3.00
2023-02-02T18:49:03.916Z,3.20
2023-02-02T18:53:06.609Z,3.30
2023-02-02T18:57:08.578Z,3.20
2023-02-02T19:01:16.749Z,3.10
2023-02-02T19:05:37.706Z,3.30
2023-02-02T19:09:39.723Z,3.00
2023-02-02T19:13:41.642Z,2.50
2023-02-02T19:17:45.986Z,2.80
2023-02-02T19:21:47.908Z,2.90
2023-02-02T19:25:53.873Z,2.50
2023-02-02T19:30:00.229Z,1.90
2023-02-02T19:34:03.620Z,1.90
2023-02-02T19:38:11.924Z,2.70
2023-02-02T19:42:13.823Z,2.70
2023-02-02T19:46:21.362Z,2.60
2023-02-02T19:50:32.773Z,2.40
2023-02-02T19:54:45.074Z,2.30
2023-02-02T19:58:48.132Z,1.90
2023-02-02T20:03:05.021Z,2.00
2023-02-02T20:07:14.159Z,2.00
2023-02-02T20:11:41.997Z,2.30
2023-02-02T20:15:44.302Z,2.60
2023-02-02T20:19:47.122Z,2.70
2023-02-02T20:23:49.151Z,2.80
2023-02-02T20:27:51.707Z,2.70
2023-02-02T20:31:56.492Z,2.60
2023-02-02T20:35:58.627Z,2.50
2023-02-02T20:40:06.502Z,2.10
2023-02-02T20:44:08.474Z,2.70
2023-02-02T20:48:12.407Z,3.00
2023-02-02T20:52:23.139Z,3.10
2023-02-02T20:56:25.346Z,3.00
2023-02-02T21:00:27.842Z,2.90
2023-02-02T21:04:29.931Z,2.90
2023-02-02T21:08:32.506Z,3.10
2023-02-02T21:12:34.497Z,2.60
2023-02-02T21:16:36.678Z,3.00
2023-02-02T21:20:38.681Z,3.60
2023-02-02T21:24:41.578Z,3.40
2023-02-02T21:28:43.811Z,3.70
2023-02-02T21:32:45.788Z,3.80
2023-02-02T21:36:48.623Z,3.80
2023-02-02T21:40:51.594Z,3.40
2023-02-02T21:44:57.629Z,3.70
2023-02-02T21:49:00.026Z,3.30
2023-02-02T21:53:16.915Z,3.40
2023-02-02T21:57:21.494Z,3.90
2023-02-02T22:01:32.822Z,4.40
2023-02-02T22:05:36.737Z,4.40
2023-02-02T22:09:41.007Z,4.40
2023-02-02T22:13:42.887Z,4.60
2023-02-02T22:17:46.779Z,4.30
2023-02-02T22:21:48.776Z,4.10
2023-02-02T22:25:56.669Z,4.20
2023-02-02T22:30:10.848Z,4.40
2023-02-02T22:34:12.742Z,4.50
2023-02-02T22:38:18.179Z,4.80
2023-02-02T22:42:20.176Z,4.50
2023-02-02T22:46:22.058Z,4.50
2023-02-02T22:50:26.675Z,4.50
2023-02-02T22:54:28.849Z,4.30
2023-02-02T22:58:30.749Z,3.80
2023-02-02T23:02:32.654Z,3.90
2023-02-02T23:06:34.751Z,4.10
2023-02-02T23:10:36.735Z,3.80
2023-02-02T23:14:38.668Z,4.20
2023-02-02T23:18:40.439Z,3.80
2023-02-02T23:22:42.381Z,4.10
2023-02-02T23:26:44.199Z,3.80
2023-02-02T23:30:46.093Z,4.20
2023-02-02T23:34:48.046Z,3.30
2023-02-02T23:38:49.918Z,3.60
2023-02-02T23:42:51.805Z,3.80
2023-02-02T23:46:54.011Z,4.10
2023-02-02T23:50:56.308Z,4.00
2023-02-02T23:55:00.249Z,3.80
2023-02-02T23:59:02.062Z,3.80
